Time;durP1;ratioP1;P1;durP2;ratioP2;P2;SDS_P1;SDS_P2;PMS_P1;PMS_P2;Temp;Humidity;BMP_temperature;BMP_pressure;BME280_temperature;BME280_humidity;BME280_pressure;Samples;Min_cycle;Max_cycle;Signal;HPM_P1;HPM_P2
2023/05/06 00:00:19;;;;;;;12.50;9.88;;;;;;;-144.85;100.00;61331.59;5059037;28;30362;-84
2023/05/06 00:02:46;;;;;;;16.10;11.10;;;;;;;-144.85;100.00;61331.59;5058960;28;31532;-85
2023/05/06 00:05:17;;;;;;;14.40;10.95;;;;;;;-144.85;100.00;61331.59;5082405;28;32616;-83
2023/05/06 00:07:47;;;;;;;16.60;10.95;;;;;;;-144.85;100.00;61331.59;5074669;28;32340;-85
2023/05/06 00:10:15;;;;;;;13.75;10.60;;;;;;;-144.85;100.00;61331.59;5071939;28;31288;-84
2023/05/06 00:12:43;;;;;;;16.65;11.02;;;;;;;-144.85;100.00;61331.59;5074748;28;31379;-85
2023/05/06 00:15:10;;;;;;;15.77;11.68;;;;;;;-144.85;100.00;61331.59;5075021;28;32660;-85
2023/05/06 00:17:37;;;;;;;15.90;11.80;;;;;;;-144.85;100.00;61331.59;5058382;28;30743;-84
2023/05/06 00:20:05;;;;;;;13.93;10.65;;;;;;;-144.85;100.00;61331.59;5075794;28;30670;-84
2023/05/06 00:22:33;;;;;;;15.25;11.65;;;;;;;-144.85;100.00;61331.59;5056476;28;31654;-84
2023/05/06 00:25:00;;;;;;;16.90;11.95;;;;;;;-144.85;100.00;61331.59;5072237;28;31232;-85
2023/05/06 00:27:27;;;;;;;19.35;11.60;;;;;;;-144.85;100.00;61331.59;5071548;28;30419;-85
2023/05/06 00:29:54;;;;;;;16.00;11.00;;;;;;;-144.85;100.00;61331.59;5068521;28;30397;-85
2023/05/06 00:32:21;;;;;;;16.67;11.65;;;;;;;-144.85;100.00;61331.59;5061852;28;31323;-84
2023/05/06 00:34:50;;;;;;;17.63;11.02;;;;;;;-144.85;100.00;61331.59;5065060;28;32535;-83
2023/05/06 00:37:17;;;;;;;14.02;11.07;;;;;;;-144.85;100.00;61331.59;5061053;28;32023;-82
2023/05/06 00:39:44;;;;;;;15.00;11.65;;;;;;;-144.85;100.00;61331.59;5086656;28;31910;-85
2023/05/06 00:42:11;;;;;;;15.48;10.82;;;;;;;-144.85;100.00;61331.59;5067023;28;31176;-83
2023/05/06 00:44:38;;;;;;;18.52;11.95;;;;;;;-144.85;100.00;61331.59;5078266;28;32093;-86
2023/05/06 00:47:06;;;;;;;15.32;11.00;;;;;;;-144.85;100.00;61331.59;5077762;28;32317;-84
2023/05/06 00:49:33;;;;;;;17.15;11.75;;;;;;;-144.85;100.00;61331.59;5045923;28;30447;-83
2023/05/06 00:52:02;;;;;;;17.05;11.85;;;;;;;-144.85;100.00;61331.59;5059677;28;32453;-84
2023/05/06 00:54:29;;;;;;;14.57;11.38;;;;;;;-144.85;100.00;61331.59;5056936;28;32307;-83
2023/05/06 00:56:57;;;;;;;14.48;11.10;;;;;;;-144.85;100.00;61331.59;5060454;28;32354;-83
2023/05/06 00:59:24;;;;;;;15.95;11.75;;;;;;;-144.85;100.00;61331.59;5059379;28;30344;-84
2023/05/06 01:01:52;;;;;;;16.25;11.50;;;;;;;-144.85;100.00;61331.59;5077695;28;33469;-83
2023/05/06 01:04:22;;;;;;;19.50;12.63;;;;;;;-144.85;100.00;61331.59;5059560;28;31203;-83
2023/05/06 01:07:07;;;;;;;17.27;12.32;;;;;;;-144.85;100.00;61331.59;5043400;28;31042;-83
2023/05/06 01:09:51;;;;;;;15.85;11.60;;;;;;;-144.85;100.00;61331.59;5074370;28;30342;-84
2023/05/06 01:12:42;;;;;;;15.88;12.20;;;;;;;-144.85;100.00;61331.59;5055706;28;31574;-83
2023/05/06 01:15:23;;;;;;;18.85;13.23;;;;;;;-144.85;100.00;61331.59;5073518;28;32554;-82
2023/05/06 01:17:52;;;;;;;17.17;12.63;;;;;;;-144.85;100.00;61331.59;5072987;28;31248;-83
2023/05/06 01:20:20;;;;;;;16.52;13.10;;;;;;;-144.85;100.00;61331.59;5065002;28;31435;-83
2023/05/06 01:22:48;;;;;;;17.27;13.07;;;;;;;-144.85;100.00;61331.59;5042469;28;32774;-82
2023/05/06 01:25:20;;;;;;;17.75;12.45;;;;;;;-144.85;100.00;61331.59;5045965;28;31443;-85
2023/05/06 01:27:48;;;;;;;17.98;13.32;;;;;;;-144.85;100.00;61331.59;5075560;28;32062;-82
2023/05/06 01:30:18;;;;;;;17.70;12.90;;;;;;;-144.85;100.00;61331.59;5062880;28;30739;-85
2023/05/06 01:33:15;;;;;;;19.02;12.82;;;;;;;-144.85;100.00;61331.59;5067409;28;31402;-82
2023/05/06 01:35:52;;;;;;;18.52;13.00;;;;;;;-144.85;100.00;61331.59;5054540;28;33671;-83
2023/05/06 01:38:28;;;;;;;16.92;13.13;;;;;;;-144.85;100.00;61331.59;5045668;28;30864;-83
2023/05/06 01:40:57;;;;;;;17.77;12.18;;;;;;;-144.85;100.00;61331.59;5075946;28;30676;-85
2023/05/06 01:43:28;;;;;;;16.60;12.23;;;;;;;-144.85;100.00;61331.59;5079862;28;33529;-84
2023/05/06 01:45:56;;;;;;;15.32;11.13;;;;;;;-144.85;100.00;61331.59;5060661;28;31027;-84
2023/05/06 01:48:31;;;;;;;13.57;10.75;;;;;;;-144.85;100.00;61331.59;5079110;28;32991;-85
2023/05/06 01:50:58;;;;;;;12.15;9.25;;;;;;;-144.85;100.00;61331.59;5074633;28;30480;-85
2023/05/06 01:53:25;;;;;;;12.15;10.15;;;;;;;-144.85;100.00;61331.59;5052262;28;31511;-82
2023/05/06 01:55:53;;;;;;;15.30;11.75;;;;;;;-144.85;100.00;61331.59;5085349;28;33114;-83
2023/05/06 01:58:20;;;;;;;15.63;11.20;;;;;;;-144.85;100.00;61331.59;5071994;28;32124;-83
2023/05/06 02:00:47;;;;;;;16.02;11.10;;;;;;;-144.85;100.00;61331.59;5094647;28;31863;-84
2023/05/06 02:03:14;;;;;;;15.52;11.65;;;;;;;-144.85;100.00;61331.59;5063951;28;32504;-84
2023/05/06 02:05:42;;;;;;;15.73;11.30;;;;;;;-144.85;100.00;61331.59;5064842;28;32461;-83
2023/05/06 02:08:09;;;;;;;15.35;11.65;;;;;;;-144.85;100.00;61331.59;5060685;28;30875;-83
2023/05/06 02:10:36;;;;;;;14.98;11.90;;;;;;;-144.85;100.00;61331.59;5061413;28;31367;-84
2023/05/06 02:13:09;;;;;;;14.25;10.25;;;;;;;-144.85;100.00;61331.59;5061360;28;31387;-83
2023/05/06 02:15:36;;;;;;;12.38;10.25;;;;;;;-144.85;100.00;61331.59;5044682;28;31215;-83
2023/05/06 02:18:05;;;;;;;12.98;9.88;;;;;;;-144.85;100.00;61331.59;5060606;28;31374;-84
2023/05/06 02:20:34;;;;;;;13.00;9.70;;;;;;;-144.85;100.00;61331.59;5060565;28;30595;-83
2023/05/06 02:23:01;;;;;;;15.38;10.23;;;;;;;-144.85;100.00;61331.59;5045589;28;31960;-83
2023/05/06 02:25:28;;;;;;;13.45;10.35;;;;;;;-144.85;100.00;61331.59;5052732;28;31082;-83
2023/05/06 02:27:55;;;;;;;15.35;11.00;;;;;;;-144.85;100.00;61331.59;5060202;28;30797;-84
2023/05/06 02:30:22;;;;;;;13.20;10.02;;;;;;;-144.85;100.00;61331.59;5061185;28;30682;-83
2023/05/06 02:32:50;;;;;;;12.70;9.55;;;;;;;-144.85;100.00;61331.59;5076379;28;32111;-83
2023/05/06 02:35:17;;;;;;;12.90;9.88;;;;;;;-144.85;100.00;61331.59;5061111;28;32603;-83
2023/05/06 02:37:44;;;;;;;13.07;9.48;;;;;;;-144.85;100.00;61331.59;5060917;28;31875;-85
2023/05/06 02:40:11;;;;;;;12.63;9.20;;;;;;;-144.85;100.00;61331.59;5044816;28;31774;-83
2023/05/06 02:42:38;;;;;;;11.75;9.10;;;;;;;-144.85;100.00;61331.59;5060504;28;31284;-83
2023/05/06 02:45:06;;;;;;;13.30;8.82;;;;;;;-144.85;100.00;61331.59;5076805;28;31279;-85
2023/05/06 02:47:34;;;;;;;13.18;8.40;;;;;;;-144.85;100.00;61331.59;5060158;28;31034;-83
2023/05/06 02:50:03;;;;;;;12.65;8.13;;;;;;;-144.85;100.00;61331.59;5060002;28;30844;-83
2023/05/06 02:52:32;;;;;;;13.40;8.77;;;;;;;-144.85;100.00;61331.59;5044610;28;32048;-83
2023/05/06 02:55:00;;;;;;;10.40;8.55;;;;;;;-144.85;100.00;61331.59;5063143;28;31233;-82
2023/05/06 02:57:27;;;;;;;11.02;8.32;;;;;;;-144.85;100.00;61331.59;5060319;28;30646;-83
2023/05/06 02:59:54;;;;;;;12.55;8.63;;;;;;;-144.85;100.00;61331.59;5079106;28;31590;-83
2023/05/06 03:02:21;;;;;;;12.80;9.07;;;;;;;-144.85;100.00;61331.59;5046815;28;31793;-83
2023/05/06 03:04:49;;;;;;;12.35;8.70;;;;;;;-144.85;100.00;61331.59;5044862;28;31054;-84
2023/05/06 03:07:17;;;;;;;12.18;9.07;;;;;;;-144.85;100.00;61331.59;5060866;28;31183;-83
2023/05/06 03:09:44;;;;;;;12.00;8.60;;;;;;;-144.85;100.00;61331.59;5061319;28;30594;-83
2023/05/06 03:12:11;;;;;;;10.07;8.00;;;;;;;-144.85;100.00;61331.59;5061297;28;31967;-83
2023/05/06 03:14:39;;;;;;;11.02;8.50;;;;;;;-144.85;100.00;61331.59;5060758;28;31608;-82
2023/05/06 03:17:06;;;;;;;11.98;8.77;;;;;;;-144.85;100.00;61331.59;5060588;28;32171;-83
2023/05/06 03:19:35;;;;;;;11.48;8.82;;;;;;;-144.85;100.00;61331.59;5060176;28;30840;-83
2023/05/06 03:22:05;;;;;;;12.07;8.35;;;;;;;-144.85;100.00;61331.59;5059460;28;32862;-83
2023/05/06 03:24:34;;;;;;;10.30;7.57;;;;;;;-144.85;100.00;61331.59;5050353;28;31399;-82
2023/05/06 03:27:04;;;;;;;12.52;7.80;;;;;;;-144.85;100.00;61331.59;5059905;28;30968;-83
2023/05/06 03:29:32;;;;;;;10.73;8.05;;;;;;;-144.85;100.00;61331.59;5043858;28;30646;-83
2023/05/06 03:32:02;;;;;;;9.93;7.70;;;;;;;-144.85;100.00;61331.59;5043678;28;31398;-82
2023/05/06 03:34:33;;;;;;;11.25;7.45;;;;;;;-144.85;100.00;61331.59;5060592;28;33106;-83
2023/05/06 03:37:02;;;;;;;11.43;8.52;;;;;;;-144.85;100.00;61331.59;5043241;28;30934;-84
2023/05/06 03:39:29;;;;;;;11.43;8.57;;;;;;;-144.85;100.00;61331.59;5059906;28;30334;-83
2023/05/06 03:41:57;;;;;;;13.65;9.07;;;;;;;-144.85;100.00;61331.59;5044126;28;32938;-82
2023/05/06 03:44:25;;;;;;;10.55;7.70;;;;;;;-144.85;100.00;61331.59;5044104;28;31123;-82
2023/05/06 03:46:52;;;;;;;9.07;7.45;;;;;;;-144.85;100.00;61331.59;5059994;28;32590;-84
2023/05/06 03:49:20;;;;;;;8.48;6.43;;;;;;;-144.85;100.00;61331.59;5060452;28;32761;-83
2023/05/06 03:51:48;;;;;;;9.05;6.47;;;;;;;-144.85;100.00;61331.59;5060410;28;31724;-82
2023/05/06 03:54:17;;;;;;;10.00;7.03;;;;;;;-144.85;100.00;61331.59;5058468;28;30741;-84
2023/05/06 03:56:44;;;;;;;8.95;7.03;;;;;;;-144.85;100.00;61331.59;5077344;28;32864;-83
2023/05/06 03:59:12;;;;;;;10.00;7.80;;;;;;;-144.85;100.00;61331.59;5043521;28;30196;-83
2023/05/06 04:01:40;;;;;;;10.68;8.27;;;;;;;-144.85;100.00;61331.59;5059247;28;33560;-83
2023/05/06 04:04:09;;;;;;;11.10;8.07;;;;;;;-144.85;100.00;61331.59;5043874;28;33076;-83
2023/05/06 04:06:36;;;;;;;9.18;7.18;;;;;;;-144.85;100.00;61331.59;5065986;28;32188;-84
2023/05/06 04:09:05;;;;;;;10.35;7.10;;;;;;;-144.85;100.00;61331.59;5060896;28;32791;-83
2023/05/06 04:11:35;;;;;;;7.22;5.93;;;;;;;-144.85;100.00;61331.59;5045439;28;34203;-83
2023/05/06 04:14:04;;;;;;;6.88;5.05;;;;;;;-144.85;100.00;61331.59;5059510;28;30994;-83
2023/05/06 04:16:31;;;;;;;22.92;4.78;;;;;;;-144.85;100.00;61331.59;5078869;28;32293;-83
2023/05/06 04:18:58;;;;;;;8.43;4.90;;;;;;;-144.85;100.00;61331.59;5061003;28;31744;-81
2023/05/06 04:21:26;;;;;;;19.45;5.82;;;;;;;-144.85;100.00;61331.59;5060317;28;31514;-82
2023/05/06 04:23:59;;;;;;;13.27;6.50;;;;;;;-144.85;100.00;61331.59;5045132;28;31387;-83
2023/05/06 04:26:33;;;;;;;13.70;6.43;;;;;;;-144.85;100.00;61331.59;5060751;28;32080;-83
2023/05/06 04:29:01;;;;;;;9.60;5.70;;;;;;;-144.85;100.00;61331.59;5060484;28;30553;-83
2023/05/06 04:31:31;;;;;;;10.98;5.80;;;;;;;-144.85;100.00;61331.59;5061521;28;31745;-84
2023/05/06 04:34:03;;;;;;;8.93;6.35;;;;;;;-144.85;100.00;61331.59;5059259;28;32808;-82
2023/05/06 04:36:31;;;;;;;8.25;6.15;;;;;;;-144.85;100.00;61331.59;5060548;28;30799;-84
2023/05/06 04:39:16;;;;;;;7.63;6.13;;;;;;;-144.85;100.00;61331.59;5047979;28;30149;-85
2023/05/06 04:41:44;;;;;;;8.07;5.75;;;;;;;-144.85;100.00;61331.59;5060927;28;31679;-83
2023/05/06 04:44:16;;;;;;;10.95;7.28;;;;;;;-144.85;100.00;61331.59;5060881;28;31205;-84
2023/05/06 04:46:46;;;;;;;11.15;7.18;;;;;;;-144.85;100.00;61331.59;5064360;28;31187;-82
2023/05/06 04:49:15;;;;;;;9.68;7.40;;;;;;;-144.85;100.00;61331.59;5061869;28;31386;-83
2023/05/06 04:51:42;;;;;;;8.52;6.13;;;;;;;-144.85;100.00;61331.59;5044089;28;31676;-84
2023/05/06 04:54:09;;;;;;;9.25;6.03;;;;;;;-144.85;100.00;61331.59;5059651;28;31199;-82
2023/05/06 04:56:37;;;;;;;7.45;6.10;;;;;;;-144.85;100.00;61331.59;5059685;28;32516;-82
2023/05/06 04:59:06;;;;;;;12.15;6.60;;;;;;;-144.85;100.00;61331.59;5059389;28;30666;-83
2023/05/06 05:01:34;;;;;;;21.35;7.65;;;;;;;-144.85;100.00;61331.59;5057338;28;31592;-82
2023/05/06 05:04:01;;;;;;;9.70;7.03;;;;;;;-144.85;100.00;61331.59;5058964;28;31939;-82
2023/05/06 05:06:28;;;;;;;8.07;5.95;;;;;;;-144.85;100.00;61331.59;5072533;28;30926;-83
2023/05/06 05:08:55;;;;;;;9.60;7.03;;;;;;;-144.85;100.00;61331.59;5067668;28;30562;-83
2023/05/06 05:11:24;;;;;;;11.15;7.32;;;;;;;-144.85;100.00;61331.59;5044580;28;32678;-82
2023/05/06 05:13:51;;;;;;;10.40;8.05;;;;;;;-144.85;100.00;61331.59;5048929;28;31540;-84
2023/05/06 05:16:21;;;;;;;11.20;8.20;;;;;;;-144.85;100.00;61331.59;5044296;28;32214;-83
2023/05/06 05:18:48;;;;;;;11.77;7.88;;;;;;;-144.85;100.00;61331.59;5062583;28;30612;-82
2023/05/06 05:21:20;;;;;;;10.68;7.68;;;;;;;-144.85;100.00;61331.59;5058950;28;31474;-82
2023/05/06 05:23:48;;;;;;;14.18;8.85;;;;;;;-144.85;100.00;61331.59;5064446;28;33250;-82
2023/05/06 05:26:15;;;;;;;12.80;8.98;;;;;;;-144.85;100.00;61331.59;5061305;28;32111;-83
2023/05/06 05:28:45;;;;;;;15.32;10.98;;;;;;;-144.85;100.00;61331.59;5045051;28;32440;-81
2023/05/06 05:31:12;;;;;;;14.48;10.07;;;;;;;-144.85;100.00;61331.59;5063558;28;32571;-82
2023/05/06 05:33:40;;;;;;;14.38;10.70;;;;;;;-144.85;100.00;61331.59;5079631;28;31346;-82
2023/05/06 05:36:14;;;;;;;14.55;10.85;;;;;;;-144.85;100.00;61331.59;5062612;28;32600;-83
2023/05/06 05:38:43;;;;;;;15.52;11.10;;;;;;;-144.85;100.00;61331.59;5045095;28;33316;-82
2023/05/06 05:41:10;;;;;;;16.48;11.23;;;;;;;-144.85;100.00;61331.59;5061818;28;31727;-82
2023/05/06 05:43:38;;;;;;;18.30;11.00;;;;;;;-144.85;100.00;61331.59;5058970;28;32269;-82
2023/05/06 05:46:05;;;;;;;15.95;11.38;;;;;;;-144.85;100.00;61331.59;5061586;28;33031;-83
2023/05/06 05:48:33;;;;;;;17.38;11.27;;;;;;;-144.85;100.00;61331.59;5061816;28;31848;-82
2023/05/06 05:51:02;;;;;;;15.55;11.90;;;;;;;-144.85;100.00;61331.59;5061305;28;31472;-82
2023/05/06 05:53:30;;;;;;;16.67;11.85;;;;;;;-144.85;100.00;61331.59;5057569;28;31599;-82
2023/05/06 05:55:57;;;;;;;15.98;12.10;;;;;;;-144.85;100.00;61331.59;5056567;28;31248;-83
2023/05/06 05:58:25;;;;;;;17.05;11.43;;;;;;;-144.85;100.00;61331.59;5061554;28;30587;-84
2023/05/06 06:00:55;;;;;;;16.63;11.35;;;;;;;-144.85;100.00;61331.59;5061475;28;33716;-83
2023/05/06 06:03:22;;;;;;;15.57;12.05;;;;;;;-144.85;100.00;61331.59;5061477;28;32112;-82
2023/05/06 06:05:51;;;;;;;16.77;11.80;;;;;;;-144.85;100.00;61331.59;5061110;28;30915;-83
2023/05/06 06:08:19;;;;;;;16.42;11.50;;;;;;;-144.85;100.00;61331.59;5075860;28;32580;-82
2023/05/06 06:10:50;;;;;;;14.85;11.70;;;;;;;-144.85;100.00;61331.59;5056825;28;31285;-83
2023/05/06 06:13:20;;;;;;;14.68;10.65;;;;;;;-144.85;100.00;61331.59;5052957;28;32290;-84
2023/05/06 06:15:48;;;;;;;15.73;11.48;;;;;;;-144.85;100.00;61331.59;5060777;28;30804;-84
2023/05/06 06:18:15;;;;;;;15.02;10.23;;;;;;;-144.85;100.00;61331.59;5060320;28;31777;-82
2023/05/06 06:20:42;;;;;;;15.57;9.85;;;;;;;-144.85;100.00;61331.59;5064073;28;31870;-84
2023/05/06 06:23:10;;;;;;;14.98;9.00;;;;;;;-144.85;100.00;61331.59;5055189;28;33171;-84
2023/05/06 06:25:37;;;;;;;12.80;9.05;;;;;;;-144.85;100.00;61331.59;5061238;28;30968;-84
2023/05/06 06:28:04;;;;;;;13.77;9.45;;;;;;;-144.85;100.00;61331.59;5079124;28;32523;-82
2023/05/06 06:30:32;;;;;;;15.57;9.68;;;;;;;-144.85;100.00;61331.59;5073952;28;31454;-83
2023/05/06 06:33:00;;;;;;;11.63;8.82;;;;;;;-144.85;100.00;61331.59;5058892;28;33174;-84
2023/05/06 06:35:28;;;;;;;14.20;9.48;;;;;;;-144.85;100.00;61331.59;5075812;28;31111;-83
2023/05/06 06:37:55;;;;;;;12.63;9.10;;;;;;;-144.85;100.00;61331.59;5078731;28;31549;-84
2023/05/06 06:40:22;;;;;;;12.45;9.38;;;;;;;-144.85;100.00;61331.59;5059198;28;32111;-83
2023/05/06 06:42:50;;;;;;;13.32;9.00;;;;;;;-144.85;100.00;61331.59;5060713;28;31430;-83
2023/05/06 06:45:36;;;;;;;10.38;8.25;;;;;;;-144.85;100.00;61331.59;5080496;28;32635;-85
2023/05/06 06:48:03;;;;;;;10.60;8.20;;;;;;;-144.85;100.00;61331.59;5045423;28;31792;-83
2023/05/06 06:50:30;;;;;;;13.00;8.45;;;;;;;-144.85;100.00;61331.59;5060288;28;32451;-84
2023/05/06 06:52:57;;;;;;;11.15;8.10;;;;;;;-144.85;100.00;61331.59;5075312;28;32443;-84
2023/05/06 06:55:25;;;;;;;11.93;7.85;;;;;;;-144.85;100.00;61331.59;5058852;28;32047;-83
2023/05/06 06:58:02;;;;;;;13.90;8.00;;;;;;;-144.85;100.00;61331.59;5076911;28;31647;-84
2023/05/06 07:00:29;;;;;;;11.45;8.55;;;;;;;-144.85;100.00;61331.59;5070640;28;34001;-84
2023/05/06 07:02:56;;;;;;;10.48;8.30;;;;;;;-144.85;100.00;61331.59;5060090;28;30986;-84
2023/05/06 07:05:25;;;;;;;11.55;8.40;;;;;;;-144.85;100.00;61331.59;5063548;28;32528;-83
2023/05/06 07:07:54;;;;;;;12.00;8.13;;;;;;;-144.85;100.00;61331.59;5063668;28;31553;-83
2023/05/06 07:10:21;;;;;;;12.85;8.10;;;;;;;-144.85;100.00;61331.59;5058529;28;32381;-84
2023/05/06 07:12:48;;;;;;;11.20;7.90;;;;;;;-144.85;100.00;61331.59;5059975;28;32920;-83
2023/05/06 07:15:15;;;;;;;11.50;7.57;;;;;;;-144.85;100.00;61331.59;5058181;28;32050;-83
2023/05/06 07:17:43;;;;;;;14.57;8.32;;;;;;;-144.85;100.00;61331.59;5056673;28;31277;-83
2023/05/06 07:20:11;;;;;;;12.57;7.72;;;;;;;-144.85;100.00;61331.59;5059762;28;31312;-84
2023/05/06 07:22:39;;;;;;;11.23;7.93;;;;;;;-144.85;100.00;61331.59;5078665;28;31800;-82
2023/05/06 07:25:07;;;;;;;12.15;8.32;;;;;;;-144.85;100.00;61331.59;5060121;28;32301;-83
2023/05/06 07:27:35;;;;;;;12.02;7.93;;;;;;;-144.85;100.00;61331.59;5060856;28;31394;-83
2023/05/06 07:30:02;;;;;;;13.68;8.80;;;;;;;-144.85;100.00;61331.59;5041988;28;31343;-83
2023/05/06 07:32:29;;;;;;;11.82;8.00;;;;;;;-144.85;100.00;61331.59;5055400;28;32103;-81
2023/05/06 07:34:57;;;;;;;12.05;8.48;;;;;;;-144.85;100.00;61331.59;5082171;28;32200;-82
2023/05/06 07:37:24;;;;;;;10.00;8.00;;;;;;;-144.85;100.00;61331.59;5062265;28;31585;-82
2023/05/06 07:39:51;;;;;;;12.05;8.25;;;;;;;-144.85;100.00;61331.59;5063019;28;32558;-82
2023/05/06 07:42:18;;;;;;;10.88;8.23;;;;;;;-144.85;100.00;61331.59;5081999;28;33787;-82
2023/05/06 07:44:45;;;;;;;12.90;8.30;;;;;;;-144.85;100.00;61331.59;5062634;28;31794;-81
2023/05/06 07:47:26;;;;;;;13.48;8.43;;;;;;;-144.85;100.00;61331.59;5065009;28;31394;-81
2023/05/06 07:49:54;;;;;;;11.55;7.93;;;;;;;-144.85;100.00;61331.59;5060720;28;31460;-82
2023/05/06 07:52:22;;;;;;;10.77;7.63;;;;;;;-144.85;100.00;61331.59;5060054;28;33153;-81
2023/05/06 07:54:50;;;;;;;11.10;7.97;;;;;;;-144.85;100.00;61331.59;5060849;28;30843;-81
2023/05/06 07:57:17;;;;;;;13.48;7.95;;;;;;;-144.85;100.00;61331.59;5077495;28;31933;-82
2023/05/06 07:59:49;;;;;;;11.65;8.15;;;;;;;-144.85;100.00;61331.59;5059280;28;31449;-82
2023/05/06 08:02:16;;;;;;;13.10;8.02;;;;;;;-144.85;100.00;61331.59;5070846;28;30910;-81
2023/05/06 08:04:44;;;;;;;11.80;7.90;;;;;;;-144.85;100.00;61331.59;5061125;28;30947;-82
2023/05/06 08:07:11;;;;;;;10.93;7.60;;;;;;;-144.85;100.00;61331.59;5062569;28;31101;-81
2023/05/06 08:09:38;;;;;;;10.80;7.07;;;;;;;-144.85;100.00;61331.59;5068043;28;32526;-82
2023/05/06 08:12:06;;;;;;;10.65;7.20;;;;;;;-144.85;100.00;61331.59;5070643;28;32659;-81
2023/05/06 08:14:33;;;;;;;12.18;7.45;;;;;;;-144.85;100.00;61331.59;5064302;28;32059;-81
2023/05/06 08:17:00;;;;;;;9.88;6.68;;;;;;;-144.85;100.00;61331.59;5061021;28;31478;-81
2023/05/06 08:19:27;;;;;;;9.77;7.32;;;;;;;-144.85;100.00;61331.59;5044693;28;31306;-81
2023/05/06 08:21:55;;;;;;;10.68;7.10;;;;;;;-144.85;100.00;61331.59;5076998;28;32299;-81
2023/05/06 08:24:22;;;;;;;11.50;7.25;;;;;;;-144.85;100.00;61331.59;5077088;28;30685;-81
2023/05/06 08:26:49;;;;;;;9.70;6.95;;;;;;;-144.85;100.00;61331.59;5053065;28;30294;-81
2023/05/06 08:29:17;;;;;;;10.05;6.47;;;;;;;-144.85;100.00;61331.59;5052236;28;31893;-81
2023/05/06 08:31:45;;;;;;;9.88;7.47;;;;;;;-144.85;100.00;61331.59;5077527;28;32275;-81
2023/05/06 08:34:13;;;;;;;9.10;6.53;;;;;;;-144.85;100.00;61331.59;5078301;28;32316;-81
2023/05/06 08:36:40;;;;;;;9.30;6.97;;;;;;;-144.85;100.00;61331.59;5058795;28;30397;-81
2023/05/06 08:39:07;;;;;;;10.85;7.13;;;;;;;-144.85;100.00;61331.59;5057821;28;31103;-82
2023/05/06 08:41:37;;;;;;;8.00;5.97;;;;;;;-144.85;100.00;61331.59;5044960;28;31896;-82
2023/05/06 08:44:04;;;;;;;8.18;5.95;;;;;;;-144.85;100.00;61331.59;5081171;28;31918;-83
2023/05/06 08:46:32;;;;;;;6.70;4.38;;;;;;;-144.85;100.00;61331.59;5063068;28;31537;-82
2023/05/06 08:48:59;;;;;;;8.27;5.35;;;;;;;-144.85;100.00;61331.59;5063753;28;31390;-82
2023/05/06 08:51:29;;;;;;;6.35;4.75;;;;;;;-144.85;100.00;61331.59;5063947;28;30811;-82
2023/05/06 08:54:00;;;;;;;6.28;4.40;;;;;;;-144.85;100.00;61331.59;5063103;28;31019;-82
2023/05/06 08:56:29;;;;;;;7.15;4.20;;;;;;;-144.85;100.00;61331.59;5068890;28;31409;-82
2023/05/06 08:58:57;;;;;;;4.68;3.80;;;;;;;-144.85;100.00;61331.59;5081663;28;32816;-82
2023/05/06 09:01:26;;;;;;;4.63;3.80;;;;;;;-144.85;100.00;61331.59;5060436;28;33200;-83
2023/05/06 09:03:58;;;;;;;6.00;4.85;;;;;;;-144.85;100.00;61331.59;5063705;28;31173;-82
2023/05/06 09:06:25;;;;;;;8.10;5.63;;;;;;;-144.85;100.00;61331.59;5078616;28;31556;-81
2023/05/06 09:08:53;;;;;;;6.13;4.70;;;;;;;-144.85;100.00;61331.59;5093691;28;32364;-82
2023/05/06 09:11:20;;;;;;;8.05;5.35;;;;;;;-144.85;100.00;61331.59;5081722;28;32142;-83
2023/05/06 09:13:48;;;;;;;8.98;5.25;;;;;;;-144.85;100.00;61331.59;5063328;28;32266;-82
2023/05/06 09:16:28;;;;;;;7.72;5.72;;;;;;;-144.85;100.00;61331.59;5045910;28;31298;-82
2023/05/06 09:18:56;;;;;;;8.50;5.88;;;;;;;-144.85;100.00;61331.59;5051719;28;31315;-82
2023/05/06 09:21:41;;;;;;;7.60;5.95;;;;;;;-144.85;100.00;61331.59;5054972;28;31266;-82
2023/05/06 09:24:09;;;;;;;8.13;5.57;;;;;;;-144.85;100.00;61331.59;5046682;28;30746;-82
2023/05/06 09:26:39;;;;;;;7.43;5.60;;;;;;;-144.85;100.00;61331.59;5065631;28;32082;-82
2023/05/06 09:29:06;;;;;;;8.23;5.97;;;;;;;-144.85;100.00;61331.59;5062381;28;31411;-82
2023/05/06 09:31:43;;;;;;;6.88;5.63;;;;;;;-144.85;100.00;61331.59;5046363;28;31933;-82
2023/05/06 09:34:11;;;;;;;10.18;5.95;;;;;;;-144.85;100.00;61331.59;5066022;28;31800;-82
2023/05/06 09:36:38;;;;;;;6.88;5.78;;;;;;;-144.85;100.00;61331.59;5062635;28;31284;-82
2023/05/06 09:39:06;;;;;;;8.13;5.50;;;;;;;-144.85;100.00;61331.59;5079100;28;31319;-82
2023/05/06 09:41:34;;;;;;;6.90;5.10;;;;;;;-144.85;100.00;61331.59;5062838;28;31923;-82
2023/05/06 09:44:02;;;;;;;11.15;5.55;;;;;;;-144.85;100.00;61331.59;5061788;28;30461;-82
2023/05/06 09:46:30;;;;;;;9.02;5.47;;;;;;;-144.85;100.00;61331.59;5062733;28;30995;-82
2023/05/06 09:48:57;;;;;;;12.85;6.10;;;;;;;-144.85;100.00;61331.59;5042312;28;32844;-82
2023/05/06 09:51:26;;;;;;;7.47;5.28;;;;;;;-144.85;100.00;61331.59;5061865;28;30752;-82
2023/05/06 09:53:56;;;;;;;6.95;4.97;;;;;;;-144.85;100.00;61331.59;5045553;28;30694;-82
2023/05/06 09:56:24;;;;;;;7.65;5.13;;;;;;;-144.85;100.00;61331.59;5062845;28;31633;-82
2023/05/06 09:58:53;;;;;;;6.55;5.15;;;;;;;-144.85;100.00;61331.59;5062560;28;32884;-83
2023/05/06 10:01:21;;;;;;;8.88;5.05;;;;;;;-144.85;100.00;61331.59;5045225;28;32271;-82
2023/05/06 10:04:08;;;;;;;8.00;5.13;;;;;;;-144.85;100.00;61331.59;5062724;28;31731;-82
2023/05/06 10:06:39;;;;;;;7.00;4.05;;;;;;;-144.85;100.00;61331.59;5059386;28;31136;-83
2023/05/06 10:09:08;;;;;;;7.88;4.60;;;;;;;-144.85;100.00;61331.59;5068386;28;31846;-83
2023/05/06 10:11:35;;;;;;;6.25;4.70;;;;;;;-144.85;100.00;61331.59;5074040;28;32223;-82
2023/05/06 10:14:03;;;;;;;10.23;4.78;;;;;;;-144.85;100.00;61331.59;5043531;28;30609;-82
2023/05/06 10:16:33;;;;;;;8.55;4.88;;;;;;;-144.85;100.00;61331.59;5060516;28;32015;-82
2023/05/06 10:19:03;;;;;;;7.70;5.55;;;;;;;-144.85;100.00;61331.59;5066080;28;31574;-83
2023/05/06 10:21:34;;;;;;;8.45;5.40;;;;;;;-144.85;100.00;61331.59;5079798;28;32288;-83
2023/05/06 10:24:07;;;;;;;6.85;5.20;;;;;;;-144.85;100.00;61331.59;5062251;28;30978;-83
2023/05/06 10:26:36;;;;;;;6.95;4.90;;;;;;;-144.85;100.00;61331.59;5061299;28;30454;-83
2023/05/06 10:29:08;;;;;;;7.03;4.65;;;;;;;-144.85;100.00;61331.59;5079914;28;32207;-82
2023/05/06 10:31:42;;;;;;;7.78;4.90;;;;;;;-144.85;100.00;61331.59;5072973;28;31753;-82
2023/05/06 10:34:10;;;;;;;8.98;5.18;;;;;;;-144.85;100.00;61331.59;5044512;28;31842;-82
2023/05/06 10:36:38;;;;;;;8.82;5.05;;;;;;;-144.85;100.00;61331.59;5060749;28;30453;-83
2023/05/06 10:39:09;;;;;;;5.50;3.80;;;;;;;-144.85;100.00;61331.59;5077519;28;33347;-82
2023/05/06 10:41:36;;;;;;;6.20;3.28;;;;;;;-144.85;100.00;61331.59;5051900;28;31589;-82
2023/05/06 10:44:04;;;;;;;7.25;2.85;;;;;;;-144.85;100.00;61331.59;5061280;28;30983;-82
2023/05/06 10:46:58;;;;;;;5.20;3.05;;;;;;;-144.85;100.00;61331.59;5061057;28;30252;-82
2023/05/06 10:49:26;;;;;;;4.80;2.58;;;;;;;-144.85;100.00;61331.59;5054362;28;32983;-82
2023/05/06 10:52:21;;;;;;;4.10;2.90;;;;;;;-144.85;100.00;61331.59;5061249;28;31374;-82
2023/05/06 10:54:50;;;;;;;5.07;2.38;;;;;;;-144.85;100.00;61331.59;5077154;28;32824;-82
2023/05/06 10:57:20;;;;;;;3.85;2.40;;;;;;;-144.85;100.00;61331.59;5061685;28;31653;-82
2023/05/06 10:59:48;;;;;;;3.20;2.15;;;;;;;-144.85;100.00;61331.59;5047558;28;31554;-83
2023/05/06 11:02:19;;;;;;;3.67;1.92;;;;;;;-144.85;100.00;61331.59;5044763;28;31588;-82
2023/05/06 11:04:51;;;;;;;4.75;2.25;;;;;;;-144.85;100.00;61331.59;5059797;28;32235;-82
2023/05/06 11:07:23;;;;;;;3.42;1.65;;;;;;;-144.85;100.00;61331.59;5057657;28;31600;-82
2023/05/06 11:09:54;;;;;;;3.30;1.83;;;;;;;-144.85;100.00;61331.59;5078081;28;31945;-82